Time;durP1;ratioP1;P1;durP2;ratioP2;P2;SDS_P1;SDS_P2;PMS_P1;PMS_P2;Temp;Humidity;BMP_temperature;BMP_pressure;BME280_temperature;BME280_humidity;BME280_pressure;Samples;Min_cycle;Max_cycle;Signal;HPM_P1;HPM_P2
2022/01/06 00:01:01;;;;;;;;;7.50;7.50;;;;;3.26;72.47;101128.84;5026402;28;45460;-77
2022/01/06 00:03:27;;;;;;;;;12.25;9.25;;;;;3.25;72.90;101132.28;5028451;28;45405;-77
2022/01/06 00:05:53;;;;;;;;;3.75;3.75;;;;;3.21;72.75;101126.13;5027632;28;45568;-78
2022/01/06 00:08:19;;;;;;;;;6.25;6.25;;;;;3.19;72.90;101125.25;5027163;28;45598;-76
2022/01/06 00:10:47;;;;;;;;;12.00;9.00;;;;;3.19;72.25;101122.63;5035999;28;45488;-77
2022/01/06 00:13:15;;;;;;;;;13.25;7.00;;;;;3.18;73.29;101120.84;5031978;28;45503;-77
2022/01/06 00:18:18;;;;;;;;;6.50;6.50;;;;;3.11;73.04;101122.47;5018169;28;45449;-77
2022/01/06 00:25:53;;;;;;;;;6.75;3.75;;;;;3.05;73.31;101116.25;5038023;28;45486;-77
2022/01/06 00:28:19;;;;;;;;;10.50;10.00;;;;;3.07;72.98;101124.97;5017706;28;45945;-76
2022/01/06 00:30:45;;;;;;;;;8.75;7.25;;;;;3.03;73.43;101127.53;5023133;28;45429;-76
2022/01/06 00:33:11;;;;;;;;;7.25;6.25;;;;;3.01;73.72;101129.25;5034489;28;45447;-76
2022/01/06 00:35:37;;;;;;;;;7.50;7.00;;;;;2.99;73.37;101133.56;5038521;28;45522;-77
2022/01/06 00:38:05;;;;;;;;;4.00;3.00;;;;;2.94;73.66;101137.78;5029610;28;45634;-76
2022/01/06 00:40:30;;;;;;;;;11.00;8.00;;;;;2.92;73.44;101139.50;5017151;28;45647;-77
2022/01/06 00:42:56;;;;;;;;;5.00;5.00;;;;;2.92;74.29;101139.50;5027101;28;45526;-77
2022/01/06 00:45:21;;;;;;;;;6.75;5.50;;;;;2.87;73.99;101133.31;5027507;28;45478;-77
2022/01/06 00:47:46;;;;;;;;;7.00;7.00;;;;;2.92;73.69;101152.56;5034145;28;46184;-76
2022/01/06 00:50:12;;;;;;;;;13.50;8.50;;;;;2.90;73.51;101146.44;5029452;28;45687;-76
2022/01/06 00:52:38;;;;;;;;;8.50;6.50;;;;;2.89;73.46;101144.66;5020435;28;45519;-76
2022/01/06 00:55:04;;;;;;;;;7.00;7.00;;;;;2.84;74.42;101135.88;5035083;28;45455;-77
2022/01/06 00:57:29;;;;;;;;;5.75;5.75;;;;;2.87;74.68;101148.09;5034692;28;45463;-77
2022/01/06 00:59:54;;;;;;;;;6.25;4.00;;;;;2.86;74.80;101144.59;5022478;28;45511;-77
2022/01/06 01:02:20;;;;;;;;;9.50;6.75;;;;;2.84;74.40;101151.53;5034859;28;45407;-77
2022/01/06 01:04:45;;;;;;;;;6.00;6.00;;;;;2.75;74.16;101131.34;5035061;28;45630;-76
2022/01/06 01:07:10;;;;;;;;;9.25;7.50;;;;;2.84;74.29;101157.63;5036499;28;47353;-78
2022/01/06 01:09:36;;;;;;;;;15.75;8.00;;;;;2.84;74.75;101161.97;5030250;28;45527;-76
2022/01/06 01:12:03;;;;;;;;;9.50;8.00;;;;;2.83;73.85;101154.97;5027055;28;45310;-77
2022/01/06 01:14:32;;;;;;;;;13.25;8.00;;;;;2.81;74.05;101156.69;5020953;28;45549;-76
2022/01/06 01:17:01;;;;;;;;;6.00;5.00;;;;;2.79;74.69;101140.09;5035273;28;45608;-76
2022/01/06 01:19:29;;;;;;;;;6.75;6.00;;;;;2.81;74.60;101151.47;5026656;28;45364;-77
2022/01/06 01:21:54;;;;;;;;;8.50;4.00;;;;;2.80;74.68;101149.69;5034611;28;45504;-75
2022/01/06 01:24:21;;;;;;;;;6.00;6.00;;;;;2.77;75.24;101154.84;5034382;28;45730;-76
2022/01/06 01:26:48;;;;;;;;;13.50;5.50;;;;;2.74;75.15;101150.44;5032274;28;46199;-78
2022/01/06 01:29:17;;;;;;;;;9.50;7.00;;;;;2.73;75.45;101153.91;5031075;28;45427;-77
2022/01/06 01:31:47;;;;;;;;;10.00;9.25;;;;;2.72;74.64;101151.25;5036441;28;45315;-76
2022/01/06 01:34:13;;;;;;;;;4.00;4.00;;;;;2.65;75.21;101147.63;5033308;28;45550;-77
2022/01/06 01:36:39;;;;;;;;;5.00;5.00;;;;;2.68;75.51;101150.31;5031421;28;46481;-76
2022/01/06 01:39:05;;;;;;;;;2.25;1.00;;;;;2.69;75.28;101151.19;5033655;28;45528;-77
2022/01/06 01:41:31;;;;;;;;;11.00;6.75;;;;;2.63;75.45;101152.81;5015274;28;45328;-76
2022/01/06 01:43:57;;;;;;;;;5.00;5.00;;;;;2.65;75.29;101156.34;5016271;28;45335;-76
2022/01/06 01:46:30;;;;;;;;;8.50;5.00;;;;;2.64;75.37;101158.91;5031795;28;46393;-76
2022/01/06 01:49:15;;;;;;;;;9.00;6.75;;;;;2.59;74.61;101164.03;5027814;28;45392;-76
2022/01/06 01:51:42;;;;;;;;;8.00;5.50;;;;;2.60;75.79;101172.78;5032999;28;45516;-77
2022/01/06 01:54:08;;;;;;;;;6.50;6.50;;;;;2.55;75.33;101158.72;5023913;28;45579;-77
2022/01/06 01:56:34;;;;;;;;;9.00;8.00;;;;;2.53;75.08;101163.91;5033447;28;45449;-76
2022/01/06 01:59:00;;;;;;;;;6.75;5.50;;;;;2.53;75.42;101169.13;5020476;28;45698;-76
2022/01/06 02:01:25;;;;;;;;;8.25;7.00;;;;;2.53;75.66;101179.56;5028254;28;45510;-76
2022/01/06 02:03:51;;;;;;;;;10.50;7.25;;;;;2.51;76.24;101183.88;5018126;28;45443;-77
2022/01/06 02:06:16;;;;;;;;;7.00;7.00;;;;;2.51;76.14;101183.00;5036679;28;46141;-76
2022/01/06 02:08:42;;;;;;;;;8.50;7.50;;;;;2.48;76.16;101173.38;5027371;28;45352;-76
2022/01/06 02:11:07;;;;;;;;;9.50;9.50;;;;;2.48;75.63;101178.59;5035014;28;45793;-77
2022/01/06 02:13:33;;;;;;;;;14.25;9.25;;;;;2.47;75.43;101184.66;5034268;28;45595;-76
2022/01/06 02:16:00;;;;;;;;;7.00;7.00;;;;;2.45;76.29;101186.34;5034943;28;46001;-76
2022/01/06 02:18:28;;;;;;;;;16.25;8.50;;;;;2.45;75.99;101183.75;5024736;28;45399;-78
2022/01/06 02:20:55;;;;;;;;;7.00;7.00;;;;;2.43;76.18;101182.81;5033026;28;45405;-76
2022/01/06 02:23:23;;;;;;;;;14.50;10.00;;;;;2.43;76.51;101183.72;5034445;28;45533;-77
2022/01/06 02:25:49;;;;;;;;;10.00;7.75;;;;;2.39;76.29;101173.16;5025853;28;45563;-76
2022/01/06 02:28:17;;;;;;;;;12.75;11.50;;;;;2.40;76.63;101185.34;5025776;28;45363;-75
2022/01/06 02:30:46;;;;;;;;;9.50;7.00;;;;;2.39;76.52;101181.00;5026959;28;45500;-76
2022/01/06 02:33:12;;;;;;;;;12.50;11.00;;;;;2.37;76.11;101185.28;5034325;28;45514;-77
2022/01/06 02:35:38;;;;;;;;;6.50;6.00;;;;;2.34;76.02;101193.03;5033507;28;45402;-76
2022/01/06 02:38:03;;;;;;;;;8.50;7.50;;;;;2.30;76.11;101190.34;5030236;28;45486;-76
2022/01/06 02:40:29;;;;;;;;;10.00;10.00;;;;;2.29;76.76;101188.63;5015040;28;45493;-75
2022/01/06 02:42:57;;;;;;;;;6.75;6.75;;;;;2.28;76.41;101194.66;5022085;28;45530;-76
2022/01/06 02:45:28;;;;;;;;;6.75;6.00;;;;;2.25;76.45;101197.19;5024790;28;47590;-77
2022/01/06 02:47:55;;;;;;;;;5.50;5.50;;;;;2.22;75.69;101186.69;5027514;28;45416;-76
2022/01/06 02:50:21;;;;;;;;;15.75;8.50;;;;;2.20;76.33;101185.78;5033188;28;45521;-76
2022/01/06 02:52:46;;;;;;;;;5.50;5.50;;;;;2.18;75.98;101186.59;5018160;28;45561;-77
2022/01/06 02:55:13;;;;;;;;;6.00;4.00;;;;;2.16;76.62;101186.56;5025358;28;45355;-77
2022/01/06 02:57:39;;;;;;;;;6.75;4.50;;;;;2.10;76.35;101182.06;5037236;28;45322;-76
2022/01/06 03:00:08;;;;;;;;;6.75;6.00;;;;;2.09;76.03;101193.31;5028137;28;45411;-75
2022/01/06 03:02:33;;;;;;;;;11.00;9.25;;;;;2.09;76.43;101195.06;5026525;28;45460;-76
2022/01/06 03:04:58;;;;;;;;;7.00;4.00;;;;;2.07;77.05;101197.63;5034676;28;45473;-76
2022/01/06 03:07:26;;;;;;;;;9.00;7.50;;;;;2.09;75.87;101210.72;5033751;28;45308;-77
2022/01/06 03:09:55;;;;;;;;;9.00;7.00;;;;;2.08;76.88;101219.38;5036854;28;45296;-76
2022/01/06 03:12:33;;;;;;;;;5.00;5.00;;;;;2.06;76.57;101208.03;5035484;28;45518;-76
2022/01/06 03:14:59;;;;;;;;;8.50;7.00;;;;;2.08;76.61;101216.75;5035553;28;46424;-75
2022/01/06 03:17:24;;;;;;;;;6.25;6.25;;;;;2.06;76.55;101215.84;5051297;28;45377;-77
2022/01/06 03:19:50;;;;;;;;;7.50;5.00;;;;;2.07;76.35;101222.84;5038029;28;45358;-76
2022/01/06 03:22:17;;;;;;;;;8.00;8.00;;;;;2.09;76.94;101222.00;5034619;28;45631;-76
2022/01/06 03:24:42;;;;;;;;;7.00;6.25;;;;;2.09;76.46;101221.16;5035979;28;45303;-75
2022/01/06 03:27:08;;;;;;;;;12.25;6.25;;;;;2.11;77.17;101225.56;5031561;28;45516;-76
2022/01/06 03:29:33;;;;;;;;;4.50;4.50;;;;;2.11;77.05;101220.34;5023225;28;45583;-76
2022/01/06 03:31:59;;;;;;;;;9.75;6.50;;;;;2.17;76.49;101229.16;5029590;28;45298;-76
2022/01/06 03:34:31;;;;;;;;;6.00;6.00;;;;;2.21;76.23;101233.63;5037024;28;45553;-76
2022/01/06 03:36:57;;;;;;;;;7.00;7.00;;;;;2.19;76.24;101224.88;5024447;28;45524;-76
2022/01/06 03:39:23;;;;;;;;;6.25;4.00;;;;;2.25;76.73;101230.25;5028861;28;45527;-75
2022/01/06 03:41:48;;;;;;;;;7.00;6.75;;;;;2.26;76.65;101239.81;5037521;28;45389;-76
2022/01/06 03:44:14;;;;;;;;;7.00;6.00;;;;;2.28;75.62;101239.03;5036029;28;45477;-77
2022/01/06 03:46:39;;;;;;;;;6.00;6.00;;;;;2.28;76.13;101228.59;5035768;28;45331;-78
2022/01/06 03:49:05;;;;;;;;;6.50;6.50;;;;;2.26;76.23;101213.72;5036996;28;45465;-77
2022/01/06 03:51:30;;;;;;;;;6.75;6.75;;;;;2.28;75.97;101223.38;5036778;28;45679;-76
2022/01/06 03:53:56;;;;;;;;;6.00;6.00;;;;;2.26;75.63;101227.69;5034228;28;45384;-77
2022/01/06 03:56:21;;;;;;;;;9.00;7.00;;;;;2.28;75.55;101219.88;5023543;28;45568;-76
2022/01/06 03:58:48;;;;;;;;;13.50;6.75;;;;;2.31;75.93;101230.41;5034210;28;45642;-77
2022/01/06 04:01:14;;;;;;;;;6.00;4.00;;;;;2.28;75.44;101233.81;5035436;28;45347;-78
2022/01/06 04:03:40;;;;;;;;;9.75;7.00;;;;;2.28;75.75;101239.03;5023570;28;45537;-77
2022/01/06 04:06:05;;;;;;;;;10.00;6.00;;;;;2.29;75.31;101240.78;5017497;28;45426;-76
2022/01/06 04:08:30;;;;;;;;;8.25;6.00;;;;;2.27;75.29;101237.25;5029582;28;45395;-77
2022/01/06 04:10:56;;;;;;;;;8.50;5.50;;;;;2.27;75.20;101237.25;5038721;28;45403;-76
2022/01/06 04:13:21;;;;;;;;;4.00;4.00;;;;;2.27;75.64;101236.38;5029445;28;46030;-80
2022/01/06 04:15:47;;;;;;;;;8.00;7.00;;;;;2.28;75.21;101235.53;5024108;28;45441;-77
2022/01/06 04:18:13;;;;;;;;;8.50;5.50;;;;;2.27;75.68;101242.47;5037094;28;45434;-76
2022/01/06 04:20:38;;;;;;;;;9.00;6.75;;;;;2.24;76.09;101226.72;5036142;28;45493;-77
2022/01/06 04:23:03;;;;;;;;;11.00;8.00;;;;;2.31;76.06;101239.09;5035627;28;48166;-76
2022/01/06 04:25:29;;;;;;;;;9.25;6.25;;;;;2.27;75.69;101226.81;5035142;28;45373;-76
2022/01/06 04:27:54;;;;;;;;;7.00;6.25;;;;;2.32;75.96;101229.53;5033095;28;45429;-77
2022/01/06 04:30:20;;;;;;;;;12.00;7.25;;;;;2.36;76.07;101235.72;5034084;28;45430;-75
2022/01/06 04:32:45;;;;;;;;;9.50;4.50;;;;;2.34;75.61;101238.28;5026223;28;46107;-75
2022/01/06 04:35:11;;;;;;;;;10.25;8.00;;;;;2.36;75.58;101241.81;5033473;28;45479;-74
2022/01/06 04:37:37;;;;;;;;;10.00;6.50;;;;;2.37;75.43;101233.16;5033331;28;45512;-75
2022/01/06 04:40:03;;;;;;;;;6.25;5.75;;;;;2.40;75.35;101242.75;5033825;28;45527;-74
2022/01/06 04:42:29;;;;;;;;;11.50;9.75;;;;;2.36;75.67;101230.50;5036622;28;46145;-75
2022/01/06 04:44:54;;;;;;;;;9.50;8.00;;;;;2.37;75.89;101233.16;5034030;28;45481;-74
2022/01/06 04:47:19;;;;;;;;;7.00;4.50;;;;;2.35;75.94;101233.94;5017152;28;45451;-73
2022/01/06 04:49:45;;;;;;;;;6.00;4.00;;;;;2.35;75.87;101239.16;5027806;28;45447;-75
2022/01/06 04:52:10;;;;;;;;;7.50;7.50;;;;;2.35;75.63;101234.81;5020739;28;45448;-75
2022/01/06 04:54:35;;;;;;;;;5.50;4.50;;;;;2.30;75.99;101226.00;5032905;28;45756;-75
2022/01/06 04:57:01;;;;;;;;;6.00;6.00;;;;;2.27;75.58;101221.59;5035044;28;45371;-74
2022/01/06 04:59:26;;;;;;;;;8.25;6.50;;;;;2.24;75.73;101226.72;5033985;28;45605;-73
2022/01/06 05:01:51;;;;;;;;;8.00;4.50;;;;;2.25;75.90;101233.72;5016549;28;45462;-74
2022/01/06 05:04:17;;;;;;;;;6.50;6.50;;;;;2.22;75.82;101236.25;5032785;28;45418;-75
2022/01/06 05:06:42;;;;;;;;;7.00;6.00;;;;;2.22;75.57;101243.22;5029024;28;45307;-74
2022/01/06 05:09:07;;;;;;;;;5.75;4.50;;;;;2.15;75.79;101249.97;5032858;28;45528;-75
2022/01/06 05:11:33;;;;;;;;;8.50;4.50;;;;;2.13;76.71;101254.28;5036619;28;46081;-75
2022/01/06 05:13:58;;;;;;;;;6.75;3.25;;;;;2.10;76.06;101259.44;5035735;28;45325;-74
2022/01/06 05:16:24;;;;;;;;;8.50;5.75;;;;;2.08;76.08;101261.09;5020595;28;45441;-75
2022/01/06 05:18:49;;;;;;;;;5.25;5.00;;;;;2.08;76.42;101259.41;5023223;28;45475;-76
2022/01/06 05:21:14;;;;;;;;;6.00;6.00;;;;;2.07;76.46;101265.44;5031337;28;46076;-75
2022/01/06 05:23:41;;;;;;;;;7.00;4.00;;;;;2.07;76.20;101269.78;5017746;28;45308;-75
2022/01/06 05:26:07;;;;;;;;;6.00;3.00;;;;;2.01;77.07;101253.97;5032855;28;45515;-74
2022/01/06 05:28:32;;;;;;;;;4.00;4.00;;;;;2.03;76.35;101262.72;5034629;28;45342;-75
2022/01/06 05:30:58;;;;;;;;;6.75;6.00;;;;;1.99;76.88;101261.78;5033368;28;46134;-75
2022/01/06 05:33:24;;;;;;;;;6.00;3.00;;;;;1.98;76.55;101265.22;5035772;28;45641;-75
2022/01/06 05:35:50;;;;;;;;;9.00;7.00;;;;;1.98;77.33;101270.44;5039613;28;45363;-75
2022/01/06 05:38:15;;;;;;;;;7.00;3.25;;;;;1.97;76.55;101268.66;5038396;28;45552;-76
2022/01/06 05:40:40;;;;;;;;;8.50;6.75;;;;;1.94;77.23;101274.69;5015680;28;45345;-75
2022/01/06 05:43:06;;;;;;;;;16.00;6.25;;;;;1.92;77.72;101278.09;5024476;28;45428;-75
2022/01/06 05:45:31;;;;;;;;;3.25;3.00;;;;;1.87;77.74;101267.53;5035152;28;45464;-75
2022/01/06 05:47:57;;;;;;;;;9.75;8.50;;;;;1.84;77.89;101267.47;5033251;28;45454;-75
2022/01/06 05:50:22;;;;;;;;;8.50;4.00;;;;;1.90;77.79;101280.66;5033842;28;46979;-75
2022/01/06 05:52:48;;;;;;;;;6.00;6.00;;;;;1.91;77.97;101287.66;5033794;28;45470;-75
2022/01/06 05:55:13;;;;;;;;;13.75;7.00;;;;;1.89;78.43;101293.66;5033611;28;45371;-74
2022/01/06 05:57:39;;;;;;;;;9.00;8.25;;;;;1.89;77.08;101286.69;5032940;28;45652;-75
2022/01/06 06:00:08;;;;;;;;;6.00;6.00;;;;;1.89;77.25;101285.81;5049654;28;46295;-76
2022/01/06 06:02:34;;;;;;;;;9.75;8.00;;;;;1.88;77.73;101287.56;5033292;28;45492;-75
2022/01/06 06:04:59;;;;;;;;;10.50;10.50;;;;;1.85;77.09;101279.63;5034751;28;45549;-75
2022/01/06 06:07:24;;;;;;;;;9.25;6.25;;;;;1.87;77.71;101288.41;5023990;28;45495;-75
2022/01/06 06:09:51;;;;;;;;;8.00;6.00;;;;;1.86;77.82;101289.22;5020544;28;46652;-74
2022/01/06 06:12:17;;;;;;;;;7.00;6.50;;;;;1.86;78.50;101307.47;5032470;28;45468;-75
2022/01/06 06:14:43;;;;;;;;;8.50;6.50;;;;;1.86;78.14;101301.38;5019499;28;45397;-75
2022/01/06 06:17:09;;;;;;;;;6.50;6.25;;;;;1.87;77.81;101306.66;5031762;28;45318;-75
2022/01/06 06:19:35;;;;;;;;;10.00;6.75;;;;;1.85;77.77;101300.50;5034589;28;45347;-75
2022/01/06 06:22:00;;;;;;;;;7.00;7.00;;;;;1.90;78.65;101311.94;5034272;28;45478;-74
2022/01/06 06:24:25;;;;;;;;;8.50;5.50;;;;;1.87;77.82;101313.59;5033487;28;45379;-76
2022/01/06 06:26:52;;;;;;;;;8.50;4.50;;;;;1.89;78.03;101318.00;5029120;28;45540;-74
2022/01/06 06:29:18;;;;;;;;;7.50;7.00;;;;;1.89;77.79;101317.13;5030188;28;45750;-74
2022/01/06 06:31:44;;;;;;;;;7.00;6.00;;;;;1.92;78.40;101325.91;5029198;28;45525;-75
2022/01/06 06:34:10;;;;;;;;;6.75;4.50;;;;;1.94;77.87;101316.41;5031186;28;45604;-75
2022/01/06 06:36:36;;;;;;;;;5.00;5.00;;;;;1.97;77.39;101338.19;5025109;28;45299;-75
2022/01/06 06:39:02;;;;;;;;;7.50;6.25;;;;;1.96;78.20;101332.09;5029602;28;46154;-75
2022/01/06 06:41:27;;;;;;;;;6.00;5.50;;;;;2.00;77.98;101330.44;5028895;28;45533;-76
2022/01/06 06:43:52;;;;;;;;;7.00;4.00;;;;;2.01;77.84;101334.81;5031207;28;45587;-75
2022/01/06 06:46:18;;;;;;;;;11.50;6.50;;;;;2.04;77.92;101343.59;5037162;28;45637;-75
2022/01/06 06:48:43;;;;;;;;;15.75;12.00;;;;;2.04;77.12;101337.50;5035304;28;46333;-76
2022/01/06 06:51:08;;;;;;;;;12.50;9.00;;;;;2.10;77.80;101337.69;5035016;28;45508;-75
2022/01/06 06:53:34;;;;;;;;;8.00;6.00;;;;;2.12;76.97;101330.78;5036450;28;45472;-75
2022/01/06 06:56:00;;;;;;;;;9.50;7.50;;;;;2.17;77.05;101328.28;5038287;28;45457;-75
2022/01/06 06:58:25;;;;;;;;;11.50;8.50;;;;;2.15;76.98;101328.25;5034024;28;46067;-76
2022/01/06 07:00:51;;;;;;;;;8.00;5.50;;;;;2.19;76.64;101337.91;5035642;28;45603;-76
2022/01/06 07:03:16;;;;;;;;;9.00;7.50;;;;;2.21;76.79;101336.22;5032792;28;45568;-75
2022/01/06 07:05:42;;;;;;;;;11.00;8.75;;;;;2.24;76.83;101346.75;5039965;28;45543;-76
2022/01/06 07:08:07;;;;;;;;;6.25;6.00;;;;;2.23;76.71;101338.88;5037274;28;46221;-76
2022/01/06 07:10:33;;;;;;;;;6.75;4.00;;;;;2.29;76.83;101346.84;5034281;28;45490;-76
2022/01/06 07:12:58;;;;;;;;;6.75;5.50;;;;;2.30;76.75;101341.69;5038071;28;45557;-75
2022/01/06 07:15:24;;;;;;;;;9.75;9.25;;;;;2.32;76.23;101339.09;5038303;28;45650;-76
2022/01/06 07:17:49;;;;;;;;;2.75;2.75;;;;;2.34;76.60;101341.75;5036464;28;45883;-75
2022/01/06 07:20:14;;;;;;;;;6.00;4.00;;;;;2.36;75.62;101340.09;5037267;28;45579;-76
2022/01/06 07:22:40;;;;;;;;;8.25;8.25;;;;;2.38;76.56;101341.00;5035906;28;45910;-77
2022/01/06 07:25:06;;;;;;;;;12.00;9.50;;;;;2.45;75.51;101355.97;5036027;28;45618;-76
2022/01/06 07:27:31;;;;;;;;;5.50;5.50;;;;;2.45;76.13;101350.75;5030343;28;46217;-76
2022/01/06 07:29:57;;;;;;;;;4.00;4.00;;;;;2.48;75.70;101345.63;5034587;28;45409;-76
2022/01/06 07:32:24;;;;;;;;;5.00;4.00;;;;;2.48;75.78;101338.66;5035234;28;45597;-76
2022/01/06 07:34:50;;;;;;;;;6.75;4.50;;;;;2.51;75.87;101344.81;5032571;28;45547;-76
2022/01/06 07:37:15;;;;;;;;;7.00;6.00;;;;;2.53;75.23;101359.66;5030500;28;45481;-76
2022/01/06 07:39:40;;;;;;;;;8.75;4.00;;;;;2.54;75.53;101353.59;5039596;28;45479;-75
2022/01/06 07:42:07;;;;;;;;;12.50;9.00;;;;;2.55;74.97;101354.47;5027369;28;45407;-77
2022/01/06 07:44:32;;;;;;;;;17.00;11.00;;;;;2.53;75.91;101349.22;5036768;28;45541;-74
2022/01/06 07:46:59;;;;;;;;;7.00;4.00;;;;;2.60;75.70;101355.50;5040948;28;46201;-75
2022/01/06 07:49:25;;;;;;;;;9.75;6.75;;;;;2.60;75.66;101353.75;5028148;28;45483;-76
2022/01/06 07:51:50;;;;;;;;;6.50;6.50;;;;;2.61;74.86;101363.38;5030437;28;45472;-75
2022/01/06 07:54:16;;;;;;;;;8.25;6.00;;;;;2.64;75.70;101368.66;5047302;28;45287;-76
2022/01/06 07:56:41;;;;;;;;;8.25;6.00;;;;;2.66;75.05;101372.19;5029134;28;46219;-75
2022/01/06 07:59:09;;;;;;;;;9.25;6.25;;;;;2.69;75.00;101374.00;5028073;28;45456;-75
2022/01/06 08:01:34;;;;;;;;;7.50;7.50;;;;;2.73;74.60;101373.19;5045498;28;45355;-76
2022/01/06 08:04:00;;;;;;;;;6.50;4.00;;;;;2.77;75.46;101376.78;5035934;28;45569;-77
2022/01/06 08:06:26;;;;;;;;;7.50;7.00;;;;;2.54;74.35;101324.91;5032608;28;45335;-75
2022/01/06 08:08:51;;;;;;;;;6.00;6.00;;;;;2.82;75.19;101364.72;5023530;28;45579;-75
2022/01/06 08:11:17;;;;;;;;;11.25;9.00;;;;;2.79;74.39;101354.19;5020880;28;45339;-75
2022/01/06 08:13:42;;;;;;;;;10.00;6.00;;;;;2.85;73.97;101367.41;5027444;28;45600;-76
2022/01/06 08:16:08;;;;;;;;;11.00;6.00;;;;;2.89;74.30;101364.03;5044120;28;46042;-76
2022/01/06 08:18:33;;;;;;;;;6.50;6.50;;;;;2.89;74.91;101361.41;5035093;28;45422;-77
2022/01/06 08:20:58;;;;;;;;;7.25;6.00;;;;;2.95;74.38;101365.91;5033855;28;45592;-75
2022/01/06 08:23:24;;;;;;;;;9.25;8.00;;;;;2.99;74.48;101366.03;5034070;28;45516;-75
2022/01/06 08:25:50;;;;;;;;;7.00;7.00;;;;;3.05;73.82;101367.88;5032880;28;46125;-75
2022/01/06 08:28:15;;;;;;;;;9.75;9.00;;;;;3.07;73.70;101370.53;5025894;28;45492;-76
2022/01/06 08:30:42;;;;;;;;;7.50;6.00;;;;;3.10;73.35;101374.09;5029103;28;45563;-76
2022/01/06 08:33:07;;;;;;;;;9.00;7.00;;;;;3.15;73.17;101384.66;5025081;28;45453;-75
2022/01/06 08:35:32;;;;;;;;;9.00;6.00;;;;;3.19;73.48;101384.78;5026665;28;45544;-75
2022/01/06 08:37:58;;;;;;;;;12.25;12.00;;;;;3.22;73.65;101383.06;5033415;28;45476;-75
2022/01/06 08:40:24;;;;;;;;;15.75;11.00;;;;;3.25;72.98;101384.03;5028100;28;45487;-76
2022/01/06 08:42:50;;;;;;;;;6.25;4.00;;;;;3.30;72.98;101382.41;5029813;28;45622;-75
2022/01/06 08:45:18;;;;;;;;;12.50;7.00;;;;;3.31;72.92;101384.16;5030350;28;45483;-76
2022/01/06 08:47:45;;;;;;;;;9.00;9.00;;;;;3.37;72.35;101392.16;5033054;28;45576;-77
2022/01/06 08:50:11;;;;;;;;;6.75;6.00;;;;;3.39;72.28;101394.81;5033725;28;45538;-76
2022/01/06 08:52:38;;;;;;;;;9.75;7.00;;;;;3.41;72.44;101395.69;5032180;28;45548;-77
2022/01/06 08:55:05;;;;;;;;;9.50;9.50;;;;;3.47;72.47;101400.19;5030727;28;46497;-76
2022/01/06 08:57:30;;;;;;;;;10.75;7.00;;;;;3.48;72.28;101391.50;5022752;28;45342;-78
2022/01/06 08:59:55;;;;;;;;;7.50;7.00;;;;;3.49;71.70;101396.78;5030608;28;45547;-78
2022/01/06 09:02:21;;;;;;;;;7.75;6.25;;;;;3.56;71.55;101398.66;5030662;28;45719;-77
2022/01/06 09:04:46;;;;;;;;;7.25;6.25;;;;;3.59;71.60;101387.38;5033730;28;45522;-78
2022/01/06 09:07:12;;;;;;;;;14.50;9.75;;;;;3.66;71.51;101386.69;5034656;28;45487;-77
2022/01/06 09:09:39;;;;;;;;;7.25;6.25;;;;;3.72;71.20;101391.16;5024131;28;45615;-77
2022/01/06 09:12:06;;;;;;;;;9.25;6.75;;;;;3.79;70.80;101394.78;5031012;28;45589;-77
2022/01/06 09:14:35;;;;;;;;;11.25;8.50;;;;;3.86;70.42;101394.06;5026446;28;46681;-79
2022/01/06 09:17:00;;;;;;;;;12.00;9.25;;;;;3.92;70.54;101396.81;5033828;28;45523;-77
2022/01/06 09:19:26;;;;;;;;;3.25;3.25;;;;;4.03;70.68;101395.28;5028975;28;45566;-79
2022/01/06 09:21:51;;;;;;;;;13.25;9.75;;;;;4.10;70.42;101391.06;5029359;28;45672;-78
2022/01/06 09:24:18;;;;;;;;;3.00;3.00;;;;;4.19;69.89;101398.19;5030530;28;46048;-79
2022/01/06 09:26:43;;;;;;;;;12.25;6.00;;;;;4.23;69.68;101400.88;5033201;28;45491;-77
2022/01/06 09:29:09;;;;;;;;;11.50;7.50;;;;;4.30;69.66;101395.75;5034070;28;45390;-78
2022/01/06 09:31:36;;;;;;;;;9.00;6.75;;;;;4.38;69.07;101395.06;5031230;28;45597;-78
2022/01/06 09:34:02;;;;;;;;;9.50;6.25;;;;;4.47;69.13;101401.34;5027233;28;45506;-75
2022/01/06 09:36:29;;;;;;;;;7.00;6.00;;;;;4.52;68.72;101400.53;5029022;28;45717;-75
2022/01/06 09:38:56;;;;;;;;;11.25;7.00;;;;;4.64;68.37;101410.34;5025601;28;45712;-76
2022/01/06 09:41:22;;;;;;;;;12.00;10.00;;;;;4.67;67.95;101413.03;5027210;28;45679;-77
2022/01/06 09:43:51;;;;;;;;;13.00;13.00;;;;;4.74;67.89;101409.66;5030336;28;46206;-77
2022/01/06 09:46:17;;;;;;;;;8.25;8.00;;;;;4.84;67.97;101412.44;5025929;28;45643;-78
2022/01/06 09:48:42;;;;;;;;;10.00;9.00;;;;;4.86;67.32;101414.25;5032434;28;45480;-78
2022/01/06 09:51:10;;;;;;;;;12.50;9.25;;;;;4.93;67.34;101420.47;5026695;28;45559;-79
2022/01/06 09:53:36;;;;;;;;;6.25;6.00;;;;;4.95;67.27;101413.50;5031461;28;46034;-79
2022/01/06 09:56:02;;;;;;;;;13.75;8.75;;;;;5.04;66.95;101418.91;5033892;28;45603;-79
2022/01/06 09:58:28;;;;;;;;;8.00;8.00;;;;;5.11;67.00;101420.75;5027612;28;45615;-78
2022/01/06 10:00:56;;;;;;;;;12.25;10.00;;;;;5.15;66.76;101419.94;5025915;28;45401;-78
2022/01/06 10:03:32;;;;;;;;;12.00;6.50;;;;;5.21;66.45;101418.28;5035772;28;46167;-78
2022/01/06 10:06:09;;;;;;;;;8.50;7.00;;;;;5.22;65.79;101420.91;5023619;28;45445;-78
2022/01/06 10:08:34;;;;;;;;;12.50;8.50;;;;;5.29;65.90;101420.16;5026743;28;45314;-78
2022/01/06 10:11:13;;;;;;;;;13.50;6.75;;;;;5.31;65.21;101426.31;5043970;28;45425;-78
2022/01/06 10:13:40;;;;;;;;;14.50;7.00;;;;;5.33;65.19;101421.97;5042751;28;45298;-79
2022/01/06 10:16:17;;;;;;;;;6.00;3.00;;;;;5.38;65.34;101431.66;5031051;28;45478;-78
2022/01/06 10:19:06;;;;;;;;;8.50;6.00;;;;;5.46;64.93;101430.88;5033755;28;45476;-79
2022/01/06 10:21:43;;;;;;;;;9.25;7.00;;;;;5.51;64.81;101426.63;5031842;28;45517;-77
2022/01/06 10:24:10;;;;;;;;;6.50;6.50;;;;;5.60;64.84;101419.72;5030915;28;45359;-79
2022/01/06 10:26:37;;;;;;;;;5.50;5.50;;;;;6.14;63.34;101421.31;5032910;28;45567;-78
2022/01/06 10:29:07;;;;;;;;;8.00;6.50;;;;;6.22;62.76;101422.31;5029685;28;45395;-79
2022/01/06 10:31:32;;;;;;;;;7.00;5.00;;;;;6.22;62.84;101424.94;5034868;28;45398;-78
2022/01/06 10:33:58;;;;;;;;;6.50;6.50;;;;;6.25;62.96;101431.06;5033874;28;45777;-78
2022/01/06 10:36:28;;;;;;;;;8.50;6.50;;;;;6.23;63.03;101417.94;5031620;28;45460;-78
2022/01/06 10:38:56;;;;;;;;;11.00;8.00;;;;;6.29;62.39;101418.00;5033611;28;45635;-78
2022/01/06 10:41:21;;;;;;;;;12.50;10.50;;;;;6.31;62.49;101418.88;5029084;28;45399;-79
2022/01/06 10:43:56;;;;;;;;;6.00;5.50;;;;;6.35;61.80;101428.56;5034403;28;45458;-77
2022/01/06 10:46:31;;;;;;;;;5.75;5.50;;;;;6.39;61.26;101419.88;5029146;28;45326;-79
2022/01/06 10:48:59;;;;;;;;;9.25;4.75;;;;;6.46;61.65;101415.53;5027899;28;45483;-79
2022/01/06 10:51:32;;;;;;;;;12.00;5.50;;;;;6.52;61.92;101399.84;5027123;28;45410;-78
2022/01/06 10:53:57;;;;;;;;;4.00;4.00;;;;;6.65;61.35;101405.22;5021832;28;45452;-79
2022/01/06 10:56:24;;;;;;;;;7.75;7.75;;;;;6.76;61.46;101409.69;5026833;28;45315;-80
2022/01/06 10:58:50;;;;;;;;;9.25;5.00;;;;;6.86;60.94;101402.81;5028509;28;45510;-79
2022/01/06 11:01:16;;;;;;;;;11.50;11.00;;;;;7.01;59.74;101403.78;5029319;28;45571;-79
2022/01/06 11:03:43;;;;;;;;;1.00;1.00;;;;;7.21;60.12;101396.03;5031719;28;45326;-79
2022/01/06 11:06:10;;;;;;;;;3.75;3.50;;;;;7.33;58.89;101384.72;5028296;28;45558;-79
2022/01/06 11:08:39;;;;;;;;;3.25;1.00;;;;;7.29;58.47;101382.06;5026433;28;45689;-79
2022/01/06 11:13:46;;;;;;;;;12.25;3.25;;;;;7.22;58.66;101382.03;5030009;28;45978;-79
2022/01/06 11:16:13;;;;;;;;;2.00;2.00;;;;;7.27;59.02;101380.28;5030098;28;45858;-79
2022/01/06 11:18:48;;;;;;;;;4.50;3.25;;;;;7.34;58.16;101371.56;5025031;28;45612;-78
2022/01/06 11:21:17;;;;;;;;;7.00;5.00;;;;;7.37;58.62;101370.72;5022799;28;45617;-79
2022/01/06 11:23:43;;;;;;;;;4.00;4.00;;;;;7.52;57.46;101370.81;5022956;28;46137;-79
2022/01/06 11:26:11;;;;;;;;;6.25;3.00;;;;;7.61;57.25;101369.97;5026592;28;45655;-79
2022/01/06 11:28:38;;;;;;;;;5.00;3.75;;;;;7.71;56.35;101371.75;5027849;28;45613;-79
2022/01/06 11:31:18;;;;;;;;;3.00;1.00;;;;;7.72;56.93;101377.94;5028710;28;45464;-80
2022/01/06 11:33:46;;;;;;;;;3.75;3.75;;;;;7.72;56.37;101372.66;5034808;28;45350;-79
2022/01/06 11:36:31;;;;;;;;;3.00;3.00;;;;;7.77;55.93;101371.81;5035961;28;45667;-78
2022/01/06 11:38:59;;;;;;;;;1.50;1.50;;;;;7.82;55.63;101377.09;5036335;28;45404;-80